createdAt,value
2022-08-17T00:01:17.390Z,22.51
2022-08-17T00:03:53.269Z,22.49
2022-08-17T00:06:29.302Z,22.52
2022-08-17T00:09:05.239Z,22.45
2022-08-17T00:11:41.547Z,22.45
2022-08-17T00:14:18.399Z,22.40
2022-08-17T00:16:57.382Z,22.33
2022-08-17T00:19:30.005Z,22.29
2022-08-17T00:22:35.179Z,22.25
2022-08-17T00:24:55.110Z,22.24
2022-08-17T00:27:27.177Z,22.31
2022-08-17T00:29:59.364Z,22.32
2022-08-17T00:33:11.987Z,22.29
2022-08-17T00:35:34.960Z,22.21
2022-08-17T00:38:09.937Z,22.20
2022-08-17T00:40:59.299Z,22.15
2022-08-17T00:43:44.364Z,22.08
2022-08-17T00:46:25.174Z,22.04
2022-08-17T00:48:57.420Z,22.03
2022-08-17T00:51:46.716Z,21.98
2022-08-17T00:54:41.963Z,21.94
2022-08-17T00:57:25.390Z,21.88
2022-08-17T01:00:16.732Z,21.84
2022-08-17T01:02:49.521Z,21.84
2022-08-17T01:05:27.489Z,21.83
2022-08-17T01:08:02.722Z,21.80
2022-08-17T01:10:59.735Z,21.79
2022-08-17T01:13:44.421Z,21.77
2022-08-17T01:16:28.445Z,21.76
2022-08-17T01:19:16.709Z,21.75
2022-08-17T01:22:11.643Z,21.71
2022-08-17T01:24:49.798Z,21.67
2022-08-17T01:27:22.733Z,21.64
2022-08-17T01:30:01.776Z,21.65
2022-08-17T01:32:34.270Z,21.65
2022-08-17T01:35:08.361Z,21.63
2022-08-17T01:37:43.270Z,21.63
2022-08-17T01:40:23.858Z,21.57
2022-08-17T01:43:04.555Z,21.55
2022-08-17T01:45:45.940Z,21.52
2022-08-17T01:48:21.917Z,21.52
2022-08-17T01:50:53.930Z,21.48
2022-08-17T01:53:40.879Z,21.42
2022-08-17T01:56:17.461Z,21.39
2022-08-17T01:58:49.732Z,21.38
2022-08-17T02:01:27.198Z,21.36
2022-08-17T02:04:01.642Z,21.34
2022-08-17T02:06:47.125Z,21.34
2022-08-17T02:09:29.742Z,21.31
2022-08-17T02:12:37.692Z,21.35
2022-08-17T02:14:55.914Z,21.34
2022-08-17T02:17:28.178Z,21.32
2022-08-17T02:20:00.458Z,21.31
2022-08-17T02:22:32.458Z,21.32
2022-08-17T02:25:09.430Z,21.28
2022-08-17T02:27:41.386Z,21.27
2022-08-17T02:31:02.094Z,21.26
2022-08-17T02:33:09.255Z,21.23
2022-08-17T02:35:43.003Z,21.17
2022-08-17T02:38:15.431Z,21.10
2022-08-17T02:40:47.677Z,21.05
2022-08-17T02:43:19.807Z,21.00
2022-08-17T02:45:51.934Z,20.95
2022-08-17T02:48:30.965Z,20.98
2022-08-17T02:51:03.871Z,20.97
2022-08-17T02:53:36.335Z,20.98
2022-08-17T02:56:08.386Z,21.03
2022-08-17T02:58:40.399Z,21.02
2022-08-17T03:01:13.283Z,21.04
2022-08-17T03:03:45.409Z,21.06
2022-08-17T03:06:17.493Z,21.08
2022-08-17T03:08:49.879Z,21.02
2022-08-17T03:11:22.110Z,21.04
2022-08-17T03:13:54.239Z,20.99
2022-08-17T03:16:26.606Z,20.97
2022-08-17T03:18:58.679Z,20.96
2022-08-17T03:21:30.715Z,20.95
2022-08-17T03:24:08.779Z,20.91
2022-08-17T03:26:41.203Z,20.86
2022-08-17T03:29:18.967Z,20.85
2022-08-17T03:31:50.958Z,20.86
2022-08-17T03:34:22.933Z,20.86
2022-08-17T03:36:55.133Z,20.86
2022-08-17T03:39:27.179Z,20.85
2022-08-17T03:42:09.842Z,20.86
2022-08-17T03:45:03.614Z,20.87
2022-08-17T03:47:53.976Z,20.87
2022-08-17T03:50:44.415Z,20.82
2022-08-17T03:53:36.032Z,20.79
2022-08-17T03:56:26.265Z,20.82
2022-08-17T03:58:58.366Z,20.81
2022-08-17T04:01:30.486Z,20.79
2022-08-17T04:04:02.497Z,20.78
2022-08-17T04:06:34.538Z,20.80
2022-08-17T04:09:07.238Z,20.82
2022-08-17T04:11:39.898Z,20.83
2022-08-17T04:14:12.023Z,20.83
2022-08-17T04:16:44.054Z,20.85
2022-08-17T04:19:16.195Z,20.85
2022-08-17T04:21:48.175Z,20.82
2022-08-17T04:24:20.142Z,20.80
2022-08-17T04:26:54.564Z,20.77
2022-08-17T04:29:26.776Z,20.65
2022-08-17T04:32:23.093Z,20.66
2022-08-17T04:35:10.763Z,20.70
2022-08-17T04:37:42.726Z,20.72
2022-08-17T04:40:33.679Z,20.74
2022-08-17T04:43:19.397Z,20.75
2022-08-17T04:46:05.152Z,20.80
2022-08-17T04:48:42.786Z,20.81
2022-08-17T04:51:28.107Z,20.77
2022-08-17T04:54:08.967Z,20.74
2022-08-17T04:56:42.209Z,20.75
2022-08-17T04:59:18.716Z,20.76
2022-08-17T05:01:52.335Z,20.80
2022-08-17T05:04:33.626Z,20.82
2022-08-17T05:07:07.576Z,20.88
2022-08-17T05:09:39.840Z,20.90
2022-08-17T05:12:11.916Z,20.93
2022-08-17T05:14:43.976Z,20.97
2022-08-17T05:17:16.071Z,20.99
2022-08-17T05:19:51.874Z,21.06
2022-08-17T05:22:24.133Z,21.12
2022-08-17T05:24:56.143Z,21.19
2022-08-17T05:27:32.877Z,21.28
2022-08-17T05:30:08.253Z,21.37
2022-08-17T05:32:40.540Z,21.40
2022-08-17T05:35:12.606Z,21.45
2022-08-17T05:37:44.678Z,21.48
2022-08-17T05:40:17.955Z,21.54
2022-08-17T05:42:50.401Z,21.58
2022-08-17T05:45:39.910Z,21.57
2022-08-17T05:48:15.416Z,21.61
2022-08-17T05:51:10.076Z,21.68
2022-08-17T05:53:41.967Z,21.78
2022-08-17T05:56:37.771Z,21.81
2022-08-17T05:59:41.713Z,21.88
2022-08-17T06:02:23.355Z,21.96
2022-08-17T06:05:15.248Z,22.03
2022-08-17T06:07:59.041Z,22.08
2022-08-17T06:11:19.786Z,22.12
2022-08-17T06:14:34.392Z,22.21
2022-08-17T06:17:16.016Z,22.24
2022-08-17T06:19:56.702Z,22.24
2022-08-17T06:22:34.227Z,22.30
2022-08-17T06:25:16.283Z,22.34
2022-08-17T06:27:56.049Z,22.41
2022-08-17T06:30:57.612Z,22.48
2022-08-17T06:33:36.763Z,22.55
2022-08-17T06:36:25.319Z,22.60
2022-08-17T06:39:18.661Z,22.72
2022-08-17T06:42:00.845Z,22.86
2022-08-17T06:44:52.132Z,22.99
2022-08-17T06:47:34.386Z,23.08
2022-08-17T06:50:21.195Z,23.18
2022-08-17T06:52:59.559Z,23.33
2022-08-17T06:56:05.418Z,23.48
2022-08-17T06:58:41.020Z,23.56
2022-08-17T07:01:19.706Z,23.54
2022-08-17T07:04:11.608Z,23.61
2022-08-17T07:07:00.125Z,23.66
2022-08-17T07:09:36.385Z,23.74
2022-08-17T07:12:20.114Z,23.80
2022-08-17T07:15:16.817Z,23.83
2022-08-17T07:17:49.050Z,23.81
2022-08-17T07:20:22.798Z,23.83
2022-08-17T07:23:05.685Z,23.89
2022-08-17T07:25:37.705Z,23.96
2022-08-17T07:28:09.743Z,24.04
2022-08-17T07:30:53.597Z,24.15
2022-08-17T07:33:30.126Z,24.26
2022-08-17T07:36:02.419Z,24.40
2022-08-17T07:38:35.685Z,24.50
2022-08-17T07:41:10.794Z,24.65
2022-08-17T07:43:42.706Z,24.79
2022-08-17T07:46:54.037Z,24.93
2022-08-17T07:49:32.130Z,25.12
2022-08-17T07:52:50.916Z,25.35
2022-08-17T07:55:31.875Z,25.68
2022-08-17T07:58:04.085Z,25.97
2022-08-17T08:00:37.238Z,26.37
2022-08-17T08:03:27.248Z,26.88
2022-08-17T08:06:03.107Z,27.35
2022-08-17T08:08:42.946Z,27.87
2022-08-17T08:11:29.540Z,28.30
2022-08-17T08:14:28.624Z,28.77
2022-08-17T08:17:09.403Z,29.24
2022-08-17T08:19:41.573Z,29.66
2022-08-17T08:22:23.900Z,30.03
2022-08-17T08:25:07.416Z,30.19
2022-08-17T08:28:03.639Z,29.86
2022-08-17T08:30:44.785Z,30.18
2022-08-17T08:33:41.663Z,30.52
2022-08-17T08:37:14.761Z,30.63
2022-08-17T08:40:11.049Z,30.77
2022-08-17T08:43:10.363Z,30.86
2022-08-17T08:46:02.324Z,31.15
2022-08-17T08:48:56.878Z,31.21
2022-08-17T08:51:46.543Z,31.46
2022-08-17T08:55:07.748Z,31.70
2022-08-17T08:58:06.231Z,32.11
2022-08-17T09:00:46.451Z,32.74
2022-08-17T09:03:52.910Z,33.31
2022-08-17T09:06:47.035Z,33.89
2022-08-17T09:10:15.314Z,34.18
2022-08-17T09:13:22.131Z,34.49
2022-08-17T09:16:05.581Z,34.92
2022-08-17T09:19:01.850Z,34.99
2022-08-17T09:21:48.360Z,34.74
2022-08-17T09:24:41.809Z,34.31
2022-08-17T09:27:25.746Z,33.90
2022-08-17T09:30:08.380Z,33.61
2022-08-17T09:32:45.925Z,33.71
2022-08-17T09:35:20.268Z,33.88
2022-08-17T09:38:30.336Z,33.93
2022-08-17T09:41:14.243Z,34.00
2022-08-17T09:44:01.089Z,34.32
2022-08-17T09:46:43.601Z,34.58
2022-08-17T09:49:28.393Z,34.27
2022-08-17T09:52:20.374Z,34.14
2022-08-17T09:54:55.390Z,34.21
2022-08-17T09:57:57.492Z,34.55
2022-08-17T10:00:37.962Z,34.75
2022-08-17T10:03:24.270Z,34.82
2022-08-17T10:06:21.773Z,34.91
2022-08-17T10:09:06.496Z,34.69
2022-08-17T10:12:12.906Z,34.44
2022-08-17T10:15:09.774Z,34.47
2022-08-17T10:18:07.507Z,34.71
2022-08-17T10:21:20.765Z,34.84
2022-08-17T10:24:41.423Z,34.96
2022-08-17T10:27:49.173Z,34.80
2022-08-17T10:30:29.476Z,34.63
2022-08-17T10:33:15.497Z,34.95
2022-08-17T10:36:03.061Z,34.79
2022-08-17T10:38:46.201Z,34.93
2022-08-17T10:41:44.029Z,35.06
2022-08-17T10:44:41.112Z,35.33
2022-08-17T10:47:17.600Z,35.46
2022-08-17T10:49:56.068Z,35.24
2022-08-17T10:52:27.970Z,34.72
2022-08-17T10:55:08.805Z,34.91
2022-08-17T10:57:44.941Z,34.97
2022-08-17T11:00:27.963Z,34.56
2022-08-17T11:03:01.259Z,34.84
2022-08-17T11:05:52.404Z,35.19
2022-08-17T11:08:58.796Z,35.24
2022-08-17T11:12:06.876Z,34.92
2022-08-17T11:14:49.553Z,34.40
2022-08-17T11:18:01.661Z,34.03
2022-08-17T11:21:23.239Z,33.93
2022-08-17T11:24:18.467Z,34.20
2022-08-17T11:27:27.783Z,34.47
2022-08-17T11:30:07.202Z,34.75
2022-08-17T11:32:54.707Z,35.22
2022-08-17T11:35:51.609Z,34.80
2022-08-17T11:38:59.926Z,34.93
2022-08-17T11:42:25.605Z,35.79
2022-08-17T11:45:49.800Z,36.21
2022-08-17T11:49:12.089Z,35.33
2022-08-17T11:52:01.177Z,34.48
2022-08-17T11:54:48.430Z,34.32
2022-08-17T11:57:26.531Z,34.38
2022-08-17T12:00:11.972Z,34.15
2022-08-17T12:02:48.510Z,33.73
2022-08-17T12:05:27.416Z,33.36
2022-08-17T12:08:11.147Z,32.83
2022-08-17T12:11:08.783Z,32.57
2022-08-17T12:13:56.453Z,32.51
2022-08-17T12:16:28.574Z,32.31
2022-08-17T12:19:03.519Z,32.19
2022-08-17T12:21:58.068Z,32.08
2022-08-17T12:24:42.003Z,32.12
2022-08-17T12:28:06.201Z,31.81
2022-08-17T12:30:39.395Z,32.22
2022-08-17T12:33:25.375Z,32.61
2022-08-17T12:36:07.583Z,32.84
2022-08-17T12:38:39.723Z,32.81
2022-08-17T12:41:27.869Z,32.56
2022-08-17T12:44:22.053Z,32.86
2022-08-17T12:46:59.658Z,33.44
2022-08-17T12:49:42.377Z,34.26
2022-08-17T12:52:28.917Z,34.89
2022-08-17T12:55:05.871Z,35.15
2022-08-17T12:57:51.416Z,34.72
2022-08-17T13:00:31.901Z,34.52
2022-08-17T13:03:16.660Z,34.71
2022-08-17T13:06:06.384Z,35.16
2022-08-17T13:08:46.124Z,35.77
2022-08-17T13:11:25.077Z,36.75
2022-08-17T13:14:09.057Z,36.99
2022-08-17T13:16:52.416Z,36.33
2022-08-17T13:19:40.553Z,35.47
2022-08-17T13:22:13.350Z,34.84
2022-08-17T13:25:05.544Z,33.43
2022-08-17T13:27:42.931Z,32.74
2022-08-17T13:30:24.422Z,32.43
2022-08-17T13:32:57.998Z,32.51
2022-08-17T13:35:50.231Z,32.43
2022-08-17T13:38:45.867Z,32.46
2022-08-17T13:41:37.018Z,32.67
2022-08-17T13:44:30.308Z,32.91
2022-08-17T13:47:04.642Z,32.90
2022-08-17T13:49:48.526Z,33.21
2022-08-17T13:52:41.150Z,33.16
2022-08-17T13:55:20.724Z,32.98
2022-08-17T13:58:06.658Z,32.70
2022-08-17T14:00:40.435Z,32.50
2022-08-17T14:03:12.638Z,32.51
2022-08-17T14:05:46.155Z,32.40
2022-08-17T14:08:20.799Z,32.35
2022-08-17T14:10:58.813Z,32.22
2022-08-17T14:13:32.360Z,32.22
2022-08-17T14:16:04.771Z,32.16
2022-08-17T14:18:56.687Z,32.31
2022-08-17T14:21:29.418Z,32.38
2022-08-17T14:24:01.428Z,32.59
2022-08-17T14:26:33.450Z,32.89
2022-08-17T14:29:05.528Z,33.06
2022-08-17T14:31:48.490Z,33.25
2022-08-17T14:34:25.731Z,33.27
2022-08-17T14:36:57.813Z,33.10
2022-08-17T14:39:29.893Z,32.81
2022-08-17T14:42:02.120Z,32.81
2022-08-17T14:44:34.215Z,32.65
2022-08-17T14:47:12.365Z,32.53
2022-08-17T14:49:47.515Z,32.40
2022-08-17T14:52:21.991Z,32.08
2022-08-17T14:54:54.105Z,32.08
2022-08-17T14:57:34.493Z,31.98
2022-08-17T15:00:08.427Z,32.12
2022-08-17T15:02:54.308Z,32.15
2022-08-17T15:05:34.522Z,32.20
2022-08-17T15:08:07.840Z,32.21
2022-08-17T15:10:39.843Z,32.14
2022-08-17T15:13:23.816Z,31.95
2022-08-17T15:15:56.209Z,31.77
2022-08-17T15:18:29.663Z,31.65
2022-08-17T15:21:05.158Z,31.52
2022-08-17T15:23:39.795Z,31.45
2022-08-17T15:26:12.129Z,31.47
2022-08-17T15:28:44.576Z,31.50
2022-08-17T15:31:31.848Z,31.46
2022-08-17T15:34:05.436Z,31.40
2022-08-17T15:36:49.180Z,31.27
2022-08-17T15:39:22.200Z,31.15
2022-08-17T15:41:58.564Z,31.08
2022-08-17T15:44:34.795Z,31.08
2022-08-17T15:47:07.248Z,31.10
2022-08-17T15:49:40.924Z,31.12
2022-08-17T15:52:25.930Z,31.01
2022-08-17T15:55:00.783Z,31.01
2022-08-17T15:57:33.427Z,30.96
2022-08-17T16:00:08.752Z,30.94
2022-08-17T16:03:45.668Z,30.94
2022-08-17T16:05:33.749Z,30.89
2022-08-17T16:08:05.809Z,30.73
2022-08-17T16:10:38.235Z,30.63
2022-08-17T16:13:17.663Z,30.49
2022-08-17T16:15:56.234Z,30.38
2022-08-17T16:18:33.705Z,30.25
2022-08-17T16:21:25.819Z,30.23
2022-08-17T16:24:03.151Z,30.14
2022-08-17T16:26:36.356Z,30.08
2022-08-17T16:29:08.632Z,30.00
2022-08-17T16:31:42.479Z,29.89
2022-08-17T16:34:17.266Z,29.83
2022-08-17T16:36:54.996Z,29.76
2022-08-17T16:39:33.174Z,29.73
2022-08-17T16:42:24.593Z,29.71
2022-08-17T16:45:05.095Z,29.65
2022-08-17T16:47:38.318Z,29.64
2022-08-17T16:50:14.090Z,29.70
2022-08-17T16:52:49.396Z,29.69
2022-08-17T16:55:22.731Z,29.70
2022-08-17T16:57:54.815Z,29.65
2022-08-17T17:00:31.288Z,29.66
2022-08-17T17:03:19.506Z,29.64
2022-08-17T17:06:09.219Z,29.65
2022-08-17T17:08:51.895Z,29.62
2022-08-17T17:11:34.391Z,29.55
2022-08-17T17:14:34.394Z,29.09
2022-08-17T17:17:36.994Z,28.75
2022-08-17T17:20:23.009Z,28.45
2022-08-17T17:23:32.293Z,28.04
2022-08-17T17:26:39.845Z,27.79
2022-08-17T17:29:20.422Z,27.70
2022-08-17T17:32:21.103Z,27.66
2022-08-17T17:35:02.081Z,27.61
2022-08-17T17:37:35.698Z,27.64
2022-08-17T17:40:21.557Z,27.50
2022-08-17T17:43:05.419Z,27.36
2022-08-17T17:46:27.743Z,27.26
2022-08-17T17:49:01.435Z,27.16
2022-08-17T17:52:03.695Z,27.16
2022-08-17T17:55:09.720Z,27.14
2022-08-17T17:58:01.263Z,27.12
2022-08-17T18:00:54.859Z,27.06
2022-08-17T18:04:05.193Z,27.05
2022-08-17T18:07:15.379Z,27.03
2022-08-17T18:10:13.735Z,27.02
2022-08-17T18:13:46.724Z,26.92
2022-08-17T18:16:20.281Z,26.81
2022-08-17T18:18:53.554Z,26.69
2022-08-17T18:21:35.962Z,26.65
2022-08-17T18:24:10.643Z,26.61
2022-08-17T18:26:57.626Z,26.54
2022-08-17T18:29:32.446Z,26.48
2022-08-17T18:32:31.241Z,26.35
2022-08-17T18:35:09.234Z,26.09
2022-08-17T18:38:12.943Z,26.02
2022-08-17T18:40:58.024Z,25.92
2022-08-17T18:43:53.368Z,25.85
2022-08-17T18:46:35.307Z,25.83
2022-08-17T18:49:28.611Z,25.77
2022-08-17T18:52:32.361Z,25.74
2022-08-17T18:55:13.106Z,25.72
2022-08-17T18:57:52.862Z,25.70
2022-08-17T19:00:40.319Z,25.67
2022-08-17T19:03:18.514Z,25.66
2022-08-17T19:05:57.792Z,25.65
2022-08-17T19:08:37.380Z,25.63
2022-08-17T19:11:21.067Z,25.60
2022-08-17T19:14:03.815Z,25.54
2022-08-17T19:16:49.459Z,25.55
2022-08-17T19:19:50.270Z,25.48
2022-08-17T19:22:30.834Z,25.45
2022-08-17T19:25:19.484Z,25.37
2022-08-17T19:28:25.792Z,25.32
2022-08-17T19:31:03.655Z,25.23
2022-08-17T19:33:39.625Z,25.15
2022-08-17T19:36:21.580Z,25.06
2022-08-17T19:39:22.754Z,24.95
2022-08-17T19:42:28.941Z,24.81
2022-08-17T19:45:33.665Z,24.72
2022-08-17T19:48:40.238Z,24.64
2022-08-17T19:51:57.569Z,24.56
2022-08-17T19:54:38.318Z,24.50
2022-08-17T19:57:33.981Z,24.45
2022-08-17T20:00:16.343Z,24.33
2022-08-17T20:03:16.408Z,24.25
2022-08-17T20:06:12.446Z,24.18
2022-08-17T20:09:19.024Z,24.11
2022-08-17T20:12:09.715Z,24.10
2022-08-17T20:14:55.304Z,24.10
2022-08-17T20:17:37.975Z,24.01
2022-08-17T20:20:27.062Z,24.00
2022-08-17T20:23:15.098Z,24.02
2022-08-17T20:26:27.092Z,24.03
2022-08-17T20:29:37.570Z,24.03
2022-08-17T20:32:25.307Z,24.04
2022-08-17T20:35:22.744Z,24.03
2022-08-17T20:38:04.201Z,23.99
2022-08-17T20:41:01.188Z,24.01
2022-08-17T20:43:33.144Z,24.02
2022-08-17T20:46:22.961Z,24.05
2022-08-17T20:49:27.930Z,24.08
2022-08-17T20:52:09.446Z,24.06
2022-08-17T20:54:54.679Z,24.01
2022-08-17T20:57:33.140Z,23.88
2022-08-17T21:00:31.292Z,23.85
2022-08-17T21:03:24.272Z,23.84
2022-08-17T21:06:17.190Z,23.86
2022-08-17T21:09:16.260Z,23.91
2022-08-17T21:12:05.248Z,23.94
2022-08-17T21:15:04.143Z,23.93
2022-08-17T21:18:06.814Z,23.91
2022-08-17T21:21:17.723Z,23.81
2022-08-17T21:24:32.437Z,23.74
2022-08-17T21:27:57.139Z,23.64
2022-08-17T21:30:29.390Z,23.60
2022-08-17T21:33:27.371Z,23.52
2022-08-17T21:36:16.976Z,23.46
2022-08-17T21:39:02.122Z,23.36
2022-08-17T21:41:53.140Z,23.35
2022-08-17T21:44:37.232Z,23.33
2022-08-17T21:47:29.449Z,23.22
2022-08-17T21:50:21.741Z,23.14
2022-08-17T21:53:00.998Z,23.12
2022-08-17T21:55:36.197Z,23.10
2022-08-17T21:58:33.994Z,23.06
2022-08-17T22:01:21.875Z,23.04
2022-08-17T22:04:21.027Z,23.02
2022-08-17T22:06:57.660Z,23.02
2022-08-17T22:09:50.214Z,22.96
2022-08-17T22:12:24.476Z,22.96
2022-08-17T22:14:57.852Z,22.95
2022-08-17T22:17:38.494Z,22.96
2022-08-17T22:20:20.455Z,22.96
2022-08-17T22:23:13.724Z,22.95
2022-08-17T22:26:06.161Z,22.93
2022-08-17T22:28:50.797Z,22.87
2022-08-17T22:31:29.938Z,22.89
2022-08-17T22:34:11.021Z,22.88
2022-08-17T22:36:43.144Z,22.88
2022-08-17T22:39:15.015Z,22.90
2022-08-17T22:41:57.205Z,22.90
2022-08-17T22:44:48.152Z,22.86
2022-08-17T22:47:29.481Z,22.89
2022-08-17T22:50:05.673Z,22.88
2022-08-17T22:53:03.117Z,22.92
2022-08-17T22:55:53.478Z,22.86
2022-08-17T22:58:43.949Z,22.84
2022-08-17T23:01:34.870Z,22.82
2022-08-17T23:04:35.818Z,22.85
2022-08-17T23:12:00.119Z,22.76
2022-08-17T23:33:58.179Z,22.76
2022-08-17T23:36:31.731Z,22.82
2022-08-17T23:39:06.566Z,22.84
2022-08-17T23:41:40.158Z,22.84
2022-08-17T23:44:13.847Z,22.84
2022-08-17T23:46:45.798Z,22.85
2022-08-17T23:49:19.175Z,22.83
2022-08-17T23:51:53.706Z,22.77
2022-08-17T23:54:43.752Z,22.77
2022-08-17T23:57:20.589Z,22.76
